KAL2105 RJFK-RKSI
Flight info
| Callsign | KAL2105 |
|---|---|
| Flight time | N/A |
| Altitude | 28000 |
| Route | SASIK Y208 BEETL G339 PSN A582 BITUX Z53 BASEM G585 GUKDO GUKDO2E |
| Aircraft | A21N/M-SDE2E3FGHIRWXY/LB1 |
Departure
| Time | 2026-04-28 14:10 |
|---|---|
| Airport | Kagoshima Airport (RJFK) |
Arrival
| Time | N/A |
|---|---|
| Airport | Incheon International Airport (RKSI) |
| Time | Latitude | Longitude | Altitude | Speed | Heading |
|---|---|---|---|---|---|
| 2026-04-28 13:44 | 31.80264 | 130.71574 | 899 ft | 0 kts | 240° |
| 2026-04-28 13:58 | 31.80373 | 130.71681 | 900 ft | 0 kts | 169° |
| 2026-04-28 13:58 | 31.80398 | 130.71677 | 900 ft | 0 kts | 153° |
| 2026-04-28 14:05 | 31.80383 | 130.71685 | 900 ft | 6 kts | 153° |
| 2026-04-28 14:05 | 31.80335 | 130.71714 | 899 ft | 9 kts | 151° |
| 2026-04-28 14:06 | 31.80267 | 130.71761 | 898 ft | 14 kts | 149° |
| 2026-04-28 14:06 | 31.80172 | 130.71826 | 896 ft | 17 kts | 150° |
| 2026-04-28 14:06 | 31.80063 | 130.71901 | 893 ft | 19 kts | 149° |
| 2026-04-28 14:06 | 31.79939 | 130.71984 | 891 ft | 21 kts | 150° |
| 2026-04-28 14:07 | 31.79804 | 130.72076 | 888 ft | 23 kts | 150° |
| 2026-04-28 14:07 | 31.79676 | 130.72162 | 885 ft | 16 kts | 150° |
| 2026-04-28 14:07 | 31.79572 | 130.72231 | 883 ft | 18 kts | 150° |
| 2026-04-28 14:07 | 31.79455 | 130.72310 | 881 ft | 20 kts | 150° |
| 2026-04-28 14:08 | 31.79326 | 130.72398 | 879 ft | 23 kts | 150° |
| 2026-04-28 14:08 | 31.79194 | 130.72488 | 876 ft | 14 kts | 149° |
| 2026-04-28 14:08 | 31.79117 | 130.72566 | 874 ft | 16 kts | 109° |
| 2026-04-28 14:08 | 31.79168 | 130.72687 | 873 ft | 19 kts | 29° |
| 2026-04-28 14:09 | 31.79271 | 130.72655 | 876 ft | 0 kts | 330° |
| 2026-04-28 14:09 | 31.79306 | 130.72632 | 877 ft | 30 kts | 330° |
| 2026-04-28 14:09 | 31.79560 | 130.72372 | 882 ft | 14 kts | 307° |
| 2026-04-28 14:09 | 31.79693 | 130.72334 | 884 ft | 52 kts | 349° |
| 2026-04-28 14:10 | 31.80250 | 130.71994 | 897 ft | 126 kts | 330° |
| 2026-04-28 14:10 | 31.81149 | 130.71389 | 985 ft | 162 kts | 329° |
| 2026-04-28 14:10 | 31.82145 | 130.70762 | 1575 ft | 163 kts | 332° |
| 2026-04-28 14:10 | 31.83162 | 130.70147 | 2182 ft | 166 kts | 331° |
| 2026-04-28 14:11 | 31.84270 | 130.69740 | 2801 ft | 168 kts | 348° |
| 2026-04-28 14:11 | 31.85420 | 130.69442 | 3409 ft | 170 kts | 345° |
| 2026-04-28 14:11 | 31.86576 | 130.69089 | 3944 ft | 176 kts | 344° |
| 2026-04-28 14:11 | 31.87796 | 130.68700 | 4434 ft | 187 kts | 344° |
| 2026-04-28 14:12 | 31.89068 | 130.68284 | 4889 ft | 198 kts | 344° |
| 2026-04-28 14:12 | 31.90428 | 130.67848 | 5432 ft | 204 kts | 344° |
| 2026-04-28 14:12 | 31.91809 | 130.67404 | 6043 ft | 207 kts | 344° |
| 2026-04-28 14:12 | 31.93205 | 130.66951 | 6661 ft | 209 kts | 344° |
| 2026-04-28 14:13 | 31.94616 | 130.66494 | 7261 ft | 211 kts | 344° |
| 2026-04-28 14:13 | 31.96036 | 130.66028 | 7810 ft | 212 kts | 338° |
| 2026-04-28 14:13 | 31.97407 | 130.65450 | 8488 ft | 208 kts | 334° |
| 2026-04-28 14:13 | 31.98774 | 130.64879 | 9103 ft | 210 kts | 334° |
| 2026-04-28 14:14 | 32.00166 | 130.64305 | 9682 ft | 213 kts | 334° |
| 2026-04-28 14:14 | 32.01573 | 130.63730 | 10227 ft | 215 kts | 334° |
| 2026-04-28 14:14 | 32.02997 | 130.63146 | 10759 ft | 217 kts | 333° |
| 2026-04-28 14:14 | 32.04431 | 130.62561 | 11291 ft | 219 kts | 332° |